This is the latest recevied weather packets stored in our database for station/object W1MWS-13. If no packets are shown the sender has not sent any weather packets the latest 10 day(s).
| Time | Temp. | Humidity | Pressure | Rain* | Wind** | Luminosity | Snow |
|---|---|---|---|---|---|---|---|
| 1777736901 | 12.22° C | 86% | 1011.7 hPa | 0 mm | - | - | - |
| 1777729411 | 8.89° C | 99% | 1012.9 hPa | 0.25 mm | - | - | - |
| 1777729102 | 8.33° C | 99% | 1012.9 hPa | 0.25 mm | - | - | - |
| 1777724606 | 7.22° C | 99% | 1013 hPa | 1.02 mm | - | - | - |
| 1777723407 | 7.78° C | 99% | 1012.9 hPa | 1.52 mm | - | - | - |
| 1777721899 | 7.22° C | 99% | 1013.4 hPa | 1.02 mm | - | - | - |
| 1777720097 | 7.78° C | 99% | 1011.7 hPa | 0 mm | - | - | - |
| 1777719550 | 7.78° C | 99% | 1011.7 hPa | 0 mm | - | - | - |
| 1777718001 | 7.22° C | 99% | 1011.9 hPa | 0 mm | - | - | - |
| 1777705708 | 7.78° C | 89% | 1012.2 hPa | 0 mm | - | - | - |
| 1777705399 | 7.78° C | 89% | 1012.2 hPa | 0 mm | - | - | - |
| 1777705102 | 7.78° C | 89% | 1012.2 hPa | 0 mm | - | - | - |
| 1777703599 | 7.78° C | 89% | 1011.5 hPa | 0 mm | - | - | - |
| 1777698505 | 8.33° C | 84% | 1011.7 hPa | 0 mm | - | - | - |
| 1777698196 | 8.33° C | 83% | 1011.7 hPa | 0 mm | - | - | - |
| 1777696704 | 8.33° C | 81% | 1012.2 hPa | 0 mm | - | - | - |
| 1777695813 | 8.33° C | 79% | 1012 hPa | 0 mm | - | - | - |
| 1777691296 | 8.33° C | 75% | 1011.7 hPa | 0 mm | - | - | - |
| 1777680799 | 12.78° C | 52% | 1010.4 hPa | 0 mm | - | - | - |
| 1777678411 | 15° C | 44% | 1009.6 hPa | 0 mm | - | - | - |
| 1777676913 | 15.56° C | 42% | 1009.4 hPa | 0 mm | - | - | - |
| 1777676024 | 16.11° C | 40% | 1009.3 hPa | 0 mm | - | - | - |
| 1777675713 | 16.11° C | 40% | 1009.3 hPa | 0 mm | - | - | - |
| 1777675113 | 16.67° C | 40% | 1009.1 hPa | 0 mm | - | - | - |
| 1777673900 | 16.67° C | 41% | 1009.1 hPa | 0 mm | - | - | - |
* Rain latest hour (hover to see other rain measurements)
** Current wind speed in m/s (hover to see current wind gust speed)